Time;durP1;ratioP1;P1;durP2;ratioP2;P2;SDS_P1;SDS_P2;PMS_P1;PMS_P2;Temp;Humidity;BMP_temperature;BMP_pressure;BME280_temperature;BME280_humidity;BME280_pressure;Samples;Min_cycle;Max_cycle;Signal;HPM_P1;HPM_P2
2022/12/26 00:01:36;;;;;;;13.07;9.30;;;;;;;7.53;100.00;98210.94;5056530;28;20396;-82
2022/12/26 00:04:02;;;;;;;14.98;8.73;;;;;;;7.50;100.00;98206.13;5057413;28;20220;-82
2022/12/26 00:06:29;;;;;;;17.60;10.18;;;;;;;7.51;100.00;98202.41;5057241;28;20033;-81
2022/12/26 00:08:55;;;;;;;17.42;8.13;;;;;;;7.55;100.00;98216.84;5054405;28;20029;-81
2022/12/26 00:11:22;;;;;;;11.90;6.95;;;;;;;7.53;100.00;98212.81;5054396;28;20503;-81
2022/12/26 00:13:56;;;;;;;15.30;8.82;;;;;;;7.49;100.00;98209.81;5055681;28;20025;-81
2022/12/26 00:16:22;;;;;;;14.90;9.40;;;;;;;7.43;100.00;98197.53;5057450;28;20507;-81
2022/12/26 00:18:48;;;;;;;12.55;8.52;;;;;;;7.45;100.00;98198.09;5055204;28;20353;-81
2022/12/26 00:21:16;;;;;;;14.20;8.75;;;;;;;7.47;100.00;98192.53;5054734;28;20092;-81
2022/12/26 00:23:41;;;;;;;16.75;10.10;;;;;;;7.44;100.00;98188.53;5056327;28;20031;-82
2022/12/26 00:26:10;;;;;;;14.00;8.25;;;;;;;7.46;100.00;98186.44;5054745;28;20392;-82
2022/12/26 00:28:36;;;;;;;14.10;9.00;;;;;;;7.49;100.00;98199.19;5055768;28;20029;-82
2022/12/26 00:31:06;;;;;;;13.43;7.22;;;;;;;7.45;100.00;98182.16;5055827;28;20496;-82
2022/12/26 00:33:36;;;;;;;12.75;8.35;;;;;;;7.53;100.00;98188.91;5054929;28;20389;-82
2022/12/26 00:36:07;;;;;;;12.05;8.73;;;;;;;7.49;100.00;98185.16;5053644;28;20044;-83
2022/12/26 00:38:34;;;;;;;14.75;8.93;;;;;;;7.38;100.00;98167.47;5047514;28;20028;-82
2022/12/26 00:41:00;;;;;;;19.00;8.43;;;;;;;7.44;100.00;98175.25;5054344;28;20017;-83
2022/12/26 00:43:25;;;;;;;12.35;7.78;;;;;;;7.39;100.00;98169.88;5054768;28;20028;-82
2022/12/26 00:45:51;;;;;;;17.25;8.27;;;;;;;7.43;100.00;98164.88;5037934;28;20029;-81
2022/12/26 00:48:17;;;;;;;10.48;6.35;;;;;;;7.47;100.00;98187.22;5054338;28;20028;-81
2022/12/26 00:50:42;;;;;;;13.30;8.48;;;;;;;7.46;100.00;98182.97;5054089;28;20125;-81
2022/12/26 00:53:07;;;;;;;9.77;6.15;;;;;;;7.55;100.00;98203.56;5036478;28;20124;-82
2022/12/26 00:55:33;;;;;;;15.38;6.80;;;;;;;7.58;100.00;98178.34;5054893;28;20025;-82
2022/12/26 00:57:58;;;;;;;10.63;7.70;;;;;;;7.65;100.00;98186.13;5055289;28;20059;-81
2022/12/26 01:00:24;;;;;;;8.10;6.22;;;;;;;7.54;100.00;98188.66;5052047;28;20380;-82
2022/12/26 01:02:50;;;;;;;11.88;8.50;;;;;;;7.62;100.00;98202.56;5033644;28;20021;-81
2022/12/26 01:05:15;;;;;;;14.90;8.60;;;;;;;7.63;100.00;98189.03;5033584;28;20081;-81
2022/12/26 01:07:41;;;;;;;12.30;7.38;;;;;;;7.67;100.00;98213.25;5033458;28;20025;-82
2022/12/26 01:10:10;;;;;;;12.77;8.02;;;;;;;7.64;100.00;98201.28;5034214;28;20160;-82
2022/12/26 01:12:36;;;;;;;10.80;7.55;;;;;;;7.64;100.00;98203.94;5031353;28;20048;-83
2022/12/26 01:15:01;;;;;;;11.55;8.13;;;;;;;7.67;100.00;98199.97;5035800;28;20025;-81
2022/12/26 01:17:28;;;;;;;12.43;6.90;;;;;;;7.67;100.00;98203.44;5052196;28;20460;-81
2022/12/26 01:19:54;;;;;;;10.50;7.25;;;;;;;7.70;100.00;98212.78;5054258;28;20033;-81
2022/12/26 01:22:20;;;;;;;9.95;7.82;;;;;;;7.70;100.00;98204.81;5054214;28;20102;-81
2022/12/26 01:24:46;;;;;;;10.40;6.68;;;;;;;7.61;100.00;98182.38;5055130;28;20112;-82
2022/12/26 01:27:12;;;;;;;13.05;7.22;;;;;;;7.59;100.00;98193.25;5055417;28;20079;-82
2022/12/26 01:29:37;;;;;;;9.45;6.60;;;;;;;7.72;100.00;98206.16;5055459;28;20488;-81
2022/12/26 01:32:03;;;;;;;9.48;6.95;;;;;;;7.72;100.00;98219.44;5052002;28;20072;-81
2022/12/26 01:34:28;;;;;;;9.07;6.25;;;;;;;7.70;100.00;98215.44;5036543;28;20116;-82
2022/12/26 01:36:53;;;;;;;7.50;5.65;;;;;;;7.73;100.00;98225.56;5036660;28;20036;-82
2022/12/26 01:39:19;;;;;;;10.00;7.38;;;;;;;7.68;100.00;98236.13;5053425;28;20035;-81
2022/12/26 01:41:45;;;;;;;11.32;7.80;;;;;;;7.68;100.00;98228.97;5055095;28;20103;-82
2022/12/26 01:44:48;;;;;;;11.38;6.82;;;;;;;7.76;100.00;98236.50;5053336;28;20404;-81
2022/12/26 01:47:14;;;;;;;9.43;7.40;;;;;;;7.68;100.00;98231.63;5053535;28;20021;-82
2022/12/26 01:49:42;;;;;;;13.40;6.18;;;;;;;7.71;100.00;98238.28;5050456;28;20031;-81
2022/12/26 01:52:15;;;;;;;9.77;6.72;;;;;;;7.74;100.00;98238.59;5052193;28;20056;-81
2022/12/26 01:54:47;;;;;;;9.27;5.65;;;;;;;7.65;100.00;98242.72;5052458;28;20050;-81
2022/12/26 01:57:21;;;;;;;10.68;6.22;;;;;;;7.62;100.00;98231.78;5051939;28;20036;-82
2022/12/26 01:59:50;;;;;;;14.63;7.60;;;;;;;7.65;100.00;98231.28;5035612;28;20116;-81
2022/12/26 02:02:19;;;;;;;10.40;7.85;;;;;;;7.66;100.00;98240.88;5053193;28;20025;-81
2022/12/26 02:07:34;;;;;;;9.68;6.57;;;;;;;7.67;100.00;98237.97;5045060;28;20125;-81
2022/12/26 02:09:59;;;;;;;10.88;7.68;;;;;;;7.68;100.00;98249.41;5053308;28;20036;-81
2022/12/26 02:12:31;;;;;;;8.40;5.57;;;;;;;7.65;100.00;98245.38;5053497;28;20035;-81
2022/12/26 02:14:57;;;;;;;11.55;6.47;;;;;;;7.74;100.00;98259.84;5037355;28;20025;-81
2022/12/26 02:17:26;;;;;;;10.48;6.75;;;;;;;7.62;100.00;98261.81;5055094;28;20043;-82
2022/12/26 02:20:13;;;;;;;7.70;5.35;;;;;;;7.63;100.00;98267.91;5052964;28;20029;-83
2022/12/26 02:23:00;;;;;;;12.77;7.35;;;;;;;7.62;100.00;98277.75;5047276;28;20021;-83
2022/12/26 02:25:35;;;;;;;12.07;7.60;;;;;;;7.64;100.00;98280.16;5053251;28;20493;-82
2022/12/26 02:28:29;;;;;;;10.75;6.88;;;;;;;7.62;100.00;98269.78;5052096;28;20021;-82
2022/12/26 02:31:08;;;;;;;12.45;8.13;;;;;;;7.63;100.00;98284.66;5054174;28;20033;-82
2022/12/26 02:34:08;;;;;;;11.30;7.07;;;;;;;7.64;100.00;98272.19;5053035;28;20017;-83
2022/12/26 02:36:56;;;;;;;10.32;7.38;;;;;;;7.66;100.00;98294.81;5015714;28;20413;-83
2022/12/26 02:39:24;;;;;;;13.70;7.25;;;;;;;7.56;100.00;98281.34;5028638;28;20414;-82
2022/12/26 02:42:02;;;;;;;11.40;7.20;;;;;;;7.62;100.00;98282.25;5032585;28;20025;-83
2022/12/26 02:48:06;;;;;;;10.15;5.88;;;;;;;7.61;100.00;98281.44;5047999;28;20087;-82
2022/12/26 03:14:27;;;;;;;11.60;8.18;;;;;;;7.46;100.00;98294.47;5049469;28;20451;-83
2022/12/26 03:20:00;;;;;;;10.23;8.00;;;;;;;7.46;100.00;98279.38;5034200;28;20171;-82
2022/12/26 03:22:38;;;;;;;16.52;7.00;;;;;;;7.39;100.00;98277.91;5032350;28;20022;-82
2022/12/26 03:27:55;;;;;;;8.27;6.63;;;;;;;7.43;100.00;98263.91;5050437;28;20094;-82
2022/12/26 03:33:04;;;;;;;10.23;6.47;;;;;;;7.43;100.00;98266.56;5052019;28;20047;-82
2022/12/26 03:35:32;;;;;;;10.77;6.90;;;;;;;7.45;100.00;98261.00;5054632;28;20025;-82
2022/12/26 03:38:01;;;;;;;12.00;7.60;;;;;;;7.44;100.00;98280.66;5055502;28;20087;-82
2022/12/26 04:19:29;;;;;;;13.65;7.68;;;;;;;7.57;100.00;98273.16;5036902;28;20068;-82
2022/12/26 04:44:58;;;;;;;8.90;6.20;;;;;;;7.48;100.00;98258.69;5055564;28;20566;-81
2022/12/26 04:47:24;;;;;;;11.68;7.22;;;;;;;7.42;100.00;98246.38;5055119;28;20048;-82
2022/12/26 04:55:17;;;;;;;13.40;6.72;;;;;;;7.44;100.00;98256.75;5040123;28;20075;-82
2022/12/26 04:57:43;;;;;;;9.27;6.90;;;;;;;7.37;100.00;98251.59;5054071;28;20036;-82
2022/12/26 05:00:09;;;;;;;11.70;6.70;;;;;;;7.45;100.00;98267.13;5053439;28;20028;-81
2022/12/26 05:10:46;;;;;;;11.15;6.15;;;;;;;7.49;100.00;98292.13;5041133;28;20039;-82
2022/12/26 05:13:12;;;;;;;13.65;6.82;;;;;;;7.42;100.00;98288.88;5054747;28;20408;-82
2022/12/26 05:29:26;;;;;;;6.97;4.75;;;;;;;7.54;100.00;98291.41;5054158;28;20028;-82
2022/12/26 05:31:51;;;;;;;9.93;5.63;;;;;;;7.63;100.00;98297.94;5054419;28;20029;-82
2022/12/26 05:34:19;;;;;;;16.48;6.15;;;;;;;7.64;100.00;98306.72;5055113;28;20035;-82
2022/12/26 05:36:57;;;;;;;12.85;5.97;;;;;;;7.64;100.00;98309.38;5037249;28;20029;-82
2022/12/26 05:39:23;;;;;;;12.00;5.93;;;;;;;7.61;100.00;98312.50;5053894;28;20035;-82
2022/12/26 05:41:48;;;;;;;13.60;5.60;;;;;;;7.58;100.00;98321.75;5053784;28;20032;-83
2022/12/26 05:44:14;;;;;;;7.32;5.53;;;;;;;7.60;100.00;98321.53;5053610;28;20474;-83
2022/12/26 05:46:41;;;;;;;9.40;5.38;;;;;;;7.63;100.00;98336.97;5053207;28;20028;-82
2022/12/26 05:49:07;;;;;;;12.73;6.35;;;;;;;7.58;100.00;98327.06;5054487;28;20092;-82
2022/12/26 05:51:34;;;;;;;7.03;5.32;;;;;;;7.65;100.00;98318.91;5053298;28;20028;-82
2022/12/26 05:53:59;;;;;;;9.75;6.05;;;;;;;7.56;100.00;98306.06;5053195;28;20017;-83
2022/12/26 05:56:25;;;;;;;10.52;6.07;;;;;;;7.60;100.00;98322.31;5051744;28;20036;-83
2022/12/26 05:58:59;;;;;;;10.65;5.93;;;;;;;7.66;100.00;98329.31;5034653;28;20028;-83
2022/12/26 06:01:26;;;;;;;9.13;5.88;;;;;;;7.72;100.00;98320.38;5053479;28;20044;-83
2022/12/26 06:03:55;;;;;;;7.53;5.93;;;;;;;7.76;100.00;98331.31;5035436;28;20480;-83
2022/12/26 06:06:22;;;;;;;8.73;6.07;;;;;;;7.69;100.00;98341.31;5053258;28;20397;-82
2022/12/26 06:08:49;;;;;;;13.70;6.65;;;;;;;7.65;100.00;98335.66;5053092;28;20116;-82
2022/12/26 06:11:16;;;;;;;9.52;6.18;;;;;;;7.61;100.00;98337.22;5051142;28;20035;-82
2022/12/26 06:13:42;;;;;;;9.60;6.60;;;;;;;7.64;100.00;98354.50;5052399;28;20032;-82
2022/12/26 06:16:10;;;;;;;11.43;7.10;;;;;;;7.60;100.00;98338.25;5051595;28;20029;-82
2022/12/26 06:18:36;;;;;;;9.48;6.75;;;;;;;7.54;100.00;98323.28;5035177;28;20024;-82
2022/12/26 06:21:10;;;;;;;11.75;6.00;;;;;;;7.43;100.00;98311.69;5051349;28;20463;-82
2022/12/26 06:23:37;;;;;;;13.73;5.80;;;;;;;7.71;100.00;98334.69;5035401;28;20033;-82
2022/12/26 06:26:04;;;;;;;7.95;5.55;;;;;;;7.68;100.00;98339.69;5051134;28;20036;-82
2022/12/26 06:28:30;;;;;;;7.38;6.00;;;;;;;7.71;100.00;98344.53;5052162;28;20049;-81
2022/12/26 06:31:02;;;;;;;11.50;4.45;;;;;;;7.57;100.00;98346.72;5052424;28;20102;-82
2022/12/26 06:33:28;;;;;;;5.85;4.13;;;;;;;7.54;100.00;98336.56;5052650;28;20107;-82
2022/12/26 06:35:53;;;;;;;4.78;3.55;;;;;;;7.56;100.00;98335.28;5052272;28;20068;-82
2022/12/26 06:38:19;;;;;;;5.07;3.30;;;;;;;7.66;100.00;98331.16;5051195;28;20025;-82
2022/12/26 06:40:44;;;;;;;4.53;3.40;;;;;;;7.60;100.00;98337.47;5050921;28;20029;-82
2022/12/26 06:43:09;;;;;;;5.30;2.90;;;;;;;7.72;100.00;98340.81;5018486;28;20033;-82
2022/12/26 06:45:35;;;;;;;5.25;3.10;;;;;;;7.69;100.00;98331.47;5052919;28;20024;-83
2022/12/26 06:48:01;;;;;;;3.55;2.97;;;;;;;7.76;100.00;98339.28;5050913;28;20499;-83
2022/12/26 06:50:27;;;;;;;5.35;1.92;;;;;;;7.53;100.00;98341.06;5052443;28;20108;-82
2022/12/26 06:52:52;;;;;;;4.65;3.08;;;;;;;7.50;100.00;98336.25;5052457;28;20082;-82
2022/12/26 06:55:18;;;;;;;3.10;2.58;;;;;;;7.66;100.00;98337.28;5017221;28;20029;-82
2022/12/26 06:57:43;;;;;;;2.25;2.05;;;;;;;7.62;100.00;98343.34;5018152;28;20057;-82
2022/12/26 07:00:09;;;;;;;2.70;2.20;;;;;;;7.64;100.00;98352.66;5047983;28;20044;-82
2022/12/26 07:02:35;;;;;;;2.65;2.20;;;;;;;7.54;100.00;98350.66;5050997;28;20091;-82
2022/12/26 07:05:00;;;;;;;2.10;1.90;;;;;;;7.56;100.00;98363.66;5051837;28;20503;-82
2022/12/26 07:07:25;;;;;;;3.25;2.67;;;;;;;7.60;100.00;98364.00;5052476;28;20174;-82
2022/12/26 07:09:51;;;;;;;3.15;2.63;;;;;;;7.58;100.00;98356.28;5051327;28;20035;-82
2022/12/26 07:12:19;;;;;;;3.63;2.72;;;;;;;7.54;100.00;98353.31;5032847;28;20044;-82
2022/12/26 07:14:45;;;;;;;6.15;2.40;;;;;;;7.57;100.00;98365.28;5033638;28;20108;-82
2022/12/26 07:17:10;;;;;;;2.47;2.28;;;;;;;7.58;100.00;98370.34;5051165;28;20174;-82
2022/12/26 07:19:35;;;;;;;4.45;3.30;;;;;;;7.61;100.00;98376.22;5049697;28;20037;-82
2022/12/26 07:22:01;;;;;;;2.65;2.42;;;;;;;7.54;100.00;98357.81;5032995;28;20098;-82
2022/12/26 07:24:26;;;;;;;4.93;3.88;;;;;;;7.60;100.00;98366.66;5049554;28;20036;-82
2022/12/26 07:26:52;;;;;;;4.35;2.85;;;;;;;7.61;100.00;98362.94;5049786;28;20530;-82
2022/12/26 07:29:17;;;;;;;3.40;3.08;;;;;;;7.66;100.00;98366.50;5033866;28;20036;-83
2022/12/26 07:31:43;;;;;;;5.07;3.72;;;;;;;7.66;100.00;98363.03;5050118;28;20519;-82
2022/12/26 07:34:08;;;;;;;4.82;3.05;;;;;;;7.68;100.00;98372.38;5050030;28;20013;-82
2022/12/26 07:36:34;;;;;;;4.18;3.22;;;;;;;7.69;100.00;98373.19;5033006;28;20119;-82
2022/12/26 07:38:59;;;;;;;9.43;4.28;;;;;;;7.72;100.00;98385.97;5028795;28;20045;-83
2022/12/26 07:42:25;;;;;;;6.22;4.05;;;;;;;7.62;100.00;98383.16;5033793;28;20472;-82
2022/12/26 07:44:19;;;;;;;6.78;4.65;;;;;;;7.69;100.00;98405.84;5042366;28;20045;-83
2022/12/26 07:46:45;;;;;;;7.00;4.32;;;;;;;7.67;100.00;98404.47;5050255;28;20032;-82
2022/12/26 07:49:11;;;;;;;8.07;4.55;;;;;;;7.57;100.00;98408.59;5034186;28;20053;-82
2022/12/26 07:51:36;;;;;;;9.85;5.65;;;;;;;7.64;100.00;98402.31;5050705;28;20477;-82
2022/12/26 07:54:02;;;;;;;9.38;6.82;;;;;;;7.68;100.00;98400.78;5050043;28;20029;-82
2022/12/26 07:56:27;;;;;;;8.43;5.32;;;;;;;7.71;100.00;98402.97;5049777;28;20116;-82
2022/12/26 07:58:52;;;;;;;9.00;6.05;;;;;;;7.70;100.00;98412.78;5033296;28;20508;-82
2022/12/26 08:01:18;;;;;;;9.38;6.38;;;;;;;7.72;100.00;98399.25;5049757;28;20060;-82
2022/12/26 08:03:43;;;;;;;11.30;5.40;;;;;;;7.67;100.00;98412.44;5051663;28;20102;-82
2022/12/26 08:06:10;;;;;;;8.70;6.57;;;;;;;7.64;100.00;98412.94;5053203;28;20032;-82
2022/12/26 08:08:36;;;;;;;10.70;6.10;;;;;;;7.75;100.00;98417.38;5028256;28;20033;-82
2022/12/26 08:11:04;;;;;;;9.43;6.97;;;;;;;7.70;100.00;98425.25;5032252;28;20032;-81
2022/12/26 08:13:30;;;;;;;10.77;6.60;;;;;;;7.70;100.00;98402.16;5027892;28;20025;-82
2022/12/26 08:15:55;;;;;;;9.50;6.80;;;;;;;7.75;100.00;98418.19;5030507;28;20044;-82
2022/12/26 08:18:21;;;;;;;12.30;6.45;;;;;;;7.74;100.00;98405.13;5047132;28;20099;-83
2022/12/26 08:20:46;;;;;;;9.43;6.78;;;;;;;7.69;100.00;98413.81;5034176;28;20036;-83
2022/12/26 08:23:11;;;;;;;8.07;6.75;;;;;;;7.77;100.00;98415.28;5055631;28;20033;-82
2022/12/26 08:25:37;;;;;;;10.75;6.25;;;;;;;7.80;100.00;98415.59;5054477;28;20083;-82
2022/12/26 08:28:02;;;;;;;10.88;6.57;;;;;;;7.89;100.00;98416.81;5020145;28;20055;-81
2022/12/26 08:30:28;;;;;;;9.07;6.03;;;;;;;7.60;100.00;98422.44;5054374;28;20029;-82
2022/12/26 08:32:53;;;;;;;11.43;5.72;;;;;;;7.67;100.00;98423.06;5037625;28;20032;-82
2022/12/26 08:35:18;;;;;;;12.05;6.75;;;;;;;7.73;100.00;98422.94;5036737;28;20400;-82
2022/12/26 08:37:46;;;;;;;6.38;5.43;;;;;;;7.88;100.00;98433.00;5053565;28;20100;-82
2022/12/26 08:40:11;;;;;;;9.25;6.47;;;;;;;7.90;100.00;98437.03;5055572;28;20083;-82
2022/12/26 08:42:36;;;;;;;10.90;6.28;;;;;;;7.77;100.00;98440.00;5055249;28;20068;-82
2022/12/26 08:45:02;;;;;;;8.73;6.18;;;;;;;7.74;100.00;98442.31;5038455;28;20021;-82
2022/12/26 08:47:27;;;;;;;8.43;6.22;;;;;;;7.97;100.00;98455.47;5055130;28;20334;-82
2022/12/26 08:49:53;;;;;;;6.22;5.40;;;;;;;7.86;100.00;98440.41;5055510;28;20442;-82
2022/12/26 08:52:18;;;;;;;5.82;5.10;;;;;;;7.87;100.00;98456.09;5038551;28;20092;-82
2022/12/26 08:54:43;;;;;;;7.20;4.85;;;;;;;7.95;100.00;98457.56;5055412;28;20544;-83
2022/12/26 08:57:09;;;;;;;6.68;5.25;;;;;;;7.88;100.00;98459.56;5054917;28;20043;-83
2022/12/26 08:59:34;;;;;;;5.40;4.85;;;;;;;7.74;100.00;98455.59;5033614;28;20030;-84
2022/12/26 09:02:00;;;;;;;7.78;5.57;;;;;;;7.89;100.00;98463.81;5036389;28;20033;-83
2022/12/26 09:04:25;;;;;;;6.90;5.68;;;;;;;7.91;100.00;98470.53;5034617;28;20026;-83
2022/12/26 09:06:51;;;;;;;5.30;4.47;;;;;;;7.75;100.00;98455.38;5018008;28;20440;-82
2022/12/26 09:09:16;;;;;;;7.95;5.07;;;;;;;7.70;100.00;98444.66;5018385;28;20036;-83
2022/12/26 09:11:41;;;;;;;6.25;5.03;;;;;;;7.67;100.00;98449.63;5040395;28;20484;-82
2022/12/26 09:14:07;;;;;;;9.20;5.30;;;;;;;7.93;100.00;98447.16;5052936;28;20021;-83
2022/12/26 09:16:37;;;;;;;7.60;5.28;;;;;;;7.87;100.00;98456.09;5053081;28;20025;-82
2022/12/26 09:19:04;;;;;;;5.85;4.82;;;;;;;7.88;100.00;98460.38;5052692;28;20044;-82
2022/12/26 09:21:30;;;;;;;6.03;4.40;;;;;;;7.85;100.00;98460.03;5055596;28;20381;-82
2022/12/26 09:23:58;;;;;;;4.93;4.38;;;;;;;7.74;100.00;98463.56;5053994;28;20044;-83
2022/12/26 09:26:24;;;;;;;4.85;4.28;;;;;;;7.93;100.00;98451.69;5054513;28;20049;-82
2022/12/26 09:28:51;;;;;;;7.05;4.63;;;;;;;7.92;100.00;98468.66;5055632;28;20025;-82
2022/12/26 09:31:20;;;;;;;5.55;4.50;;;;;;;7.98;100.00;98463.19;5037890;28;20078;-82
2022/12/26 09:33:46;;;;;;;5.35;4.05;;;;;;;7.82;100.00;98452.56;5052865;28;20044;-82
2022/12/26 09:36:24;;;;;;;11.13;4.60;;;;;;;7.75;100.00;98443.94;5036995;28;20124;-82
2022/12/26 09:38:49;;;;;;;4.13;3.53;;;;;;;7.82;100.00;98466.63;5054070;28;20492;-82
2022/12/26 09:41:39;;;;;;;3.75;3.38;;;;;;;7.84;100.00;98471.72;5054014;28;20025;-82
2022/12/26 09:44:13;;;;;;;4.28;3.33;;;;;;;7.62;100.00;98473.47;5054261;28;20052;-83
2022/12/26 09:46:50;;;;;;;3.50;3.20;;;;;;;7.75;100.00;98486.44;5054025;28;20100;-82
2022/12/26 09:49:21;;;;;;;3.75;2.97;;;;;;;7.46;100.00;98467.06;5055124;28;20037;-83
2022/12/26 09:51:55;;;;;;;3.30;3.00;;;;;;;7.62;100.00;98474.28;5053309;28;20126;-83
2022/12/26 09:54:41;;;;;;;3.78;3.10;;;;;;;7.68;100.00;98456.56;5052925;28;20032;-83
2022/12/26 09:57:14;;;;;;;4.63;2.75;;;;;;;7.78;100.00;98465.50;5054888;28;20512;-83
2022/12/26 09:59:47;;;;;;;3.80;2.45;;;;;;;7.65;100.00;98457.84;5055366;28;20036;-83
2022/12/26 10:02:21;;;;;;;2.42;2.20;;;;;;;7.74;100.00;98469.69;5057254;28;20109;-83
2022/12/26 10:04:47;;;;;;;4.85;3.10;;;;;;;7.84;100.00;98477.03;5055637;28;20074;-82
2022/12/26 10:07:55;;;;;;;3.08;2.08;;;;;;;7.81;100.00;98488.13;5052450;28;20400;-82
2022/12/26 10:10:21;;;;;;;3.55;2.65;;;;;;;7.87;100.00;98500.47;4976675;28;20026;-81
2022/12/26 10:12:55;;;;;;;4.35;2.13;;;;;;;7.82;100.00;98503.84;5040888;28;20033;-82
2022/12/26 10:15:26;;;;;;;4.97;2.20;;;;;;;7.92;100.00;98500.56;5053370;28;20032;-82
2022/12/26 10:17:57;;;;;;;2.65;2.08;;;;;;;7.80;100.00;98491.84;5053973;28;20480;-82
2022/12/26 10:20:38;;;;;;;1.85;1.75;;;;;;;7.86;100.00;98489.06;5053018;28;20033;-82
2022/12/26 10:23:42;;;;;;;2.60;2.20;;;;;;;7.83;100.00;98488.72;5052549;28;20029;-82
2022/12/26 10:26:10;;;;;;;3.67;1.90;;;;;;;7.96;100.00;98493.72;4984915;28;20612;-82
2022/12/26 10:28:44;;;;;;;2.53;2.33;;;;;;;7.80;100.00;98489.19;5045736;28;20045;-82
2022/12/26 10:31:17;;;;;;;3.47;2.08;;;;;;;7.79;100.00;98496.38;5052305;28;20063;-82
2022/12/26 10:33:55;;;;;;;3.17;2.40;;;;;;;7.91;100.00;98491.78;5053627;28;20486;-82
2022/12/26 10:36:28;;;;;;;2.63;2.35;;;;;;;7.93;100.00;98502.97;5056231;28;20035;-82
2022/12/26 10:38:57;;;;;;;4.03;2.00;;;;;;;7.79;100.00;98500.88;5055713;28;20071;-82
2022/12/26 10:41:26;;;;;;;4.43;2.10;;;;;;;7.76;100.00;98509.28;5055039;28;20039;-83
2022/12/26 10:43:52;;;;;;;3.95;1.98;;;;;;;7.76;100.00;98496.81;5058384;28;20055;-83
2022/12/26 10:46:36;;;;;;;3.75;2.15;;;;;;;7.96;100.00;98507.00;5057363;28;20051;-83
2022/12/26 10:49:02;;;;;;;2.42;1.90;;;;;;;7.83;100.00;98502.81;5057746;28;20112;-83
2022/12/26 10:51:28;;;;;;;2.30;2.13;;;;;;;7.85;100.00;98515.84;5056934;28;20056;-82
2022/12/26 10:53:53;;;;;;;1.95;1.70;;;;;;;7.90;99.95;98515.94;5056029;28;20024;-82
2022/12/26 10:56:21;;;;;;;2.00;1.80;;;;;;;7.80;100.00;98507.81;5055047;28;20041;-82
2022/12/26 10:59:02;;;;;;;2.80;2.40;;;;;;;7.84;100.00;98487.69;5054801;28;20017;-82
2022/12/26 11:01:27;;;;;;;2.40;2.20;;;;;;;7.82;100.00;98505.72;5052464;28;20047;-82
2022/12/26 11:03:55;;;;;;;1.90;1.80;;;;;;;7.95;100.00;98508.06;5054454;28;20036;-82
2022/12/26 11:06:25;;;;;;;4.90;2.63;;;;;;;7.98;100.00;98494.28;5054519;28;20023;-82
2022/12/26 11:08:50;;;;;;;2.20;2.00;;;;;;;8.04;99.98;98504.75;5054821;28;20028;-82
2022/12/26 11:11:46;;;;;;;3.05;2.28;;;;;;;7.97;99.95;98503.31;5036552;28;20025;-83
2022/12/26 11:14:37;;;;;;;2.72;2.03;;;;;;;7.88;100.00;98483.50;5054351;28;20096;-82
2022/12/26 11:17:07;;;;;;;3.35;2.35;;;;;;;7.94;99.75;98493.16;5048285;28;20021;-82
2022/12/26 11:19:39;;;;;;;2.92;1.75;;;;;;;7.86;100.00;98490.91;5034256;28;20120;-82
2022/12/26 11:22:27;;;;;;;3.42;1.80;;;;;;;7.90;99.48;98506.13;5049476;28;20136;-82
2022/12/26 11:25:12;;;;;;;3.63;1.90;;;;;;;8.04;99.49;98499.44;5032808;28;20444;-82
2022/12/26 11:27:48;;;;;;;2.28;1.90;;;;;;;7.97;99.69;98500.66;5049539;28;20553;-82
2022/12/26 11:30:19;;;;;;;2.53;1.63;;;;;;;7.99;99.20;98495.91;5051884;28;20442;-82
2022/12/26 11:32:48;;;;;;;3.30;2.20;;;;;;;7.97;99.15;98488.16;5052223;28;20028;-82
2022/12/26 11:35:27;;;;;;;1.80;1.70;;;;;;;8.06;99.03;98484.06;5053272;28;20028;-82
2022/12/26 11:37:55;;;;;;;2.47;2.10;;;;;;;8.03;99.10;98471.28;5050100;28;20025;-82
2022/12/26 11:40:24;;;;;;;2.03;1.80;;;;;;;8.05;98.94;98477.16;5045017;28;20093;-82
2022/12/26 11:42:55;;;;;;;3.17;2.30;;;;;;;8.07;98.59;98475.06;5046618;28;20500;-82
2022/12/26 11:45:26;;;;;;;1.60;1.50;;;;;;;7.91;99.29;98456.41;5054433;28;20028;-82
2022/12/26 11:47:54;;;;;;;1.50;1.33;;;;;;;7.93;99.67;98471.09;5054450;28;20025;-82
2022/12/26 11:50:23;;;;;;;1.60;1.48;;;;;;;7.98;99.75;98473.03;5053861;28;20025;-82
2022/12/26 11:53:05;;;;;;;3.25;1.77;;;;;;;7.85;100.00;98460.84;5052816;28;20021;-81
2022/12/26 11:55:32;;;;;;;1.23;1.20;;;;;;;8.04;98.76;98470.22;5052338;28;20508;-81
2022/12/26 11:58:18;;;;;;;1.73;1.45;;;;;;;7.96;99.15;98459.16;5057323;28;20029;-82
2022/12/26 12:00:49;;;;;;;1.30;1.20;;;;;;;7.88;99.74;98468.34;5056098;28;20067;-81
2022/12/26 12:03:19;;;;;;;1.67;1.58;;;;;;;7.74;99.97;98461.72;5049529;28;20407;-81
2022/12/26 12:06:15;;;;;;;1.35;1.30;;;;;;;7.95;98.94;98476.97;5039168;28;20032;-82
2022/12/26 12:08:40;;;;;;;2.08;1.50;;;;;;;7.92;99.31;98481.97;5055950;28;20528;-82
2022/12/26 12:11:26;;;;;;;2.40;1.25;;;;;;;7.94;99.38;98482.53;5057221;28;20025;-81
2022/12/26 12:14:04;;;;;;;1.30;1.20;;;;;;;7.93;98.14;98472.97;5058134;28;20487;-82
2022/12/26 12:16:36;;;;;;;1.40;1.27;;;;;;;7.91;99.28;98480.34;5052837;28;20536;-81
2022/12/26 12:19:29;;;;;;;2.00;1.40;;;;;;;7.95;98.82;98479.63;5055593;28;20059;-82
2022/12/26 12:22:19;;;;;;;1.48;1.25;;;;;;;7.89;99.48;98475.28;5054359;28;20061;-82
2022/12/26 12:25:20;;;;;;;2.10;1.35;;;;;;;7.88;98.68;98478.19;5041694;28;20384;-81
2022/12/26 12:28:17;;;;;;;1.27;1.23;;;;;;;7.93;99.21;98472.97;5049919;28;20017;-82
2022/12/26 12:31:30;;;;;;;1.33;1.23;;;;;;;7.97;98.40;98492.69;5047720;28;20496;-82
2022/12/26 12:34:11;;;;;;;1.65;1.10;;;;;;;8.00;98.52;98498.31;4994852;28;20026;-82
2022/12/26 12:37:05;;;;;;;1.45;1.02;;;;;;;7.97;98.70;98492.69;4978023;28;20093;-81
2022/12/26 12:39:46;;;;;;;3.67;1.52;;;;;;;7.95;99.10;98492.91;5041416;28;20029;-82
2022/12/26 12:42:22;;;;;;;1.38;1.17;;;;;;;7.97;98.45;98498.00;5056269;28;20075;-82
2022/12/26 12:44:53;;;;;;;;;;;;;;;7.86;98.77;98501.53;5055005;28;20036;-82
2022/12/26 12:47:28;;;;;;;1.25;1.15;;;;;;;7.93;98.40;98491.56;5053834;28;19913;-82
2022/12/26 12:50:07;;;;;;;3.70;1.40;;;;;;;7.94;98.73;98503.78;5054565;28;20070;-82
2022/12/26 12:52:57;;;;;;;2.83;1.70;;;;;;;7.80;99.05;98486.53;5054426;28;20021;-82
2022/12/26 12:55:55;;;;;;;1.45;1.35;;;;;;;7.87;98.44;98511.91;5056007;28;20114;-81
2022/12/26 12:58:23;;;;;;;1.77;1.42;;;;;;;7.87;98.91;98505.78;5028979;28;20033;-82
2022/12/26 13:00:55;;;;;;;1.60;1.48;;;;;;;7.84;98.72;98495.66;5053048;28;20025;-82
2022/12/26 13:03:39;;;;;;;1.88;1.60;;;;;;;7.94;99.05;98482.53;5056008;28;20495;-82
2022/12/26 13:06:15;;;;;;;1.27;1.17;;;;;;;7.84;98.93;98472.50;5053736;28;20068;-82
2022/12/26 13:08:44;;;;;;;3.20;2.03;;;;;;;7.82;99.45;98473.81;5052590;28;20029;-82
2022/12/26 13:11:33;;;;;;;2.92;1.65;;;;;;;7.80;99.31;98474.03;5055519;28;20480;-83
2022/12/26 13:14:10;;;;;;;2.05;1.88;;;;;;;7.75;99.89;98470.50;5052109;28;20492;-82
2022/12/26 13:16:42;;;;;;;4.15;2.08;;;;;;;7.73;99.43;98475.25;5034463;28;20033;-82
2022/12/26 13:19:31;;;;;;;3.03;2.05;;;;;;;7.61;99.38;98479.81;5035414;28;20033;-82
2022/12/26 13:22:03;;;;;;;2.33;1.85;;;;;;;7.64;99.31;98482.81;5035533;28;20452;-82
2022/12/26 13:24:47;;;;;;;3.25;1.60;;;;;;;7.58;98.83;98476.59;5036369;28;20381;-82
2022/12/26 13:27:20;;;;;;;2.20;2.00;;;;;;;7.48;99.30;98457.00;5036054;28;20033;-82
2022/12/26 13:29:47;;;;;;;1.80;1.70;;;;;;;7.46;99.08;98475.84;5042975;28;20028;-82
2022/12/26 13:32:28;;;;;;;4.35;1.83;;;;;;;7.38;99.59;98457.63;5034888;28;20029;-83
2022/12/26 13:34:56;;;;;;;9.65;4.07;;;;;;;7.41;99.50;98453.69;5054542;28;20037;-83
2022/12/26 13:37:52;;;;;;;4.47;1.95;;;;;;;7.42;99.83;98465.94;5054612;28;20488;-82
2022/12/26 13:40:20;;;;;;;2.42;2.22;;;;;;;7.42;99.87;98453.47;5048262;28;20639;-83
2022/12/26 13:45:36;;;;;;;2.63;2.42;;;;;;;7.42;99.85;98457.97;5053352;28;20082;-83
2022/12/26 13:48:11;;;;;;;3.78;3.03;;;;;;;7.40;99.02;98460.84;5054273;28;20056;-82
2022/12/26 13:50:50;;;;;;;5.27;4.67;;;;;;;7.41;99.44;98453.69;5052971;28;20028;-82
2022/12/26 13:53:25;;;;;;;5.68;3.72;;;;;;;7.42;99.42;98461.44;5052793;28;20280;-82
2022/12/26 13:55:53;;;;;;;5.35;3.65;;;;;;;7.29;100.00;98464.38;5054476;28;20032;-82
2022/12/26 13:58:18;;;;;;;5.00;4.55;;;;;;;7.40;99.95;98470.69;5053994;28;20029;-82
2022/12/26 14:00:45;;;;;;;7.07;4.55;;;;;;;7.33;99.40;98470.00;5053208;28;20029;-83
2022/12/26 14:03:29;;;;;;;4.78;4.18;;;;;;;7.43;100.00;98471.00;5053984;28;20518;-82